Time;durP1;ratioP1;P1;durP2;ratioP2;P2;SDS_P1;SDS_P2;PMS_P1;PMS_P2;Temp;Humidity;BMP_temperature;BMP_pressure;BME280_temperature;BME280_humidity;BME280_pressure;Samples;Min_cycle;Max_cycle;Signal;HPM_P1;HPM_P2
2023/07/12 00:01:51;;;;;;;4.80;2.60;;;;;;;22.16;50.26;100500.23;107927;1284;22192;-61
2023/07/12 00:04:17;;;;;;;4.60;2.30;;;;;;;22.14;50.06;100500.53;107816;1286;21999;-59
2023/07/12 00:06:42;;;;;;;3.80;2.40;;;;;;;22.12;50.18;100503.50;107826;1290;21997;-61
2023/07/12 00:09:12;;;;;;;6.70;2.00;;;;;;;22.12;50.19;100503.69;107845;1283;21984;-60
2023/07/12 00:11:40;;;;;;;4.20;2.40;;;;;;;22.13;50.31;100504.89;107832;1290;22035;-62
2023/07/12 00:14:06;;;;;;;6.60;2.80;;;;;;;22.14;50.05;100510.37;107884;1280;21989;-60
2023/07/12 00:16:36;;;;;;;5.30;2.50;;;;;;;22.15;50.30;100514.25;107823;1284;21999;-60
2023/07/12 00:19:02;;;;;;;4.40;2.90;;;;;;;22.10;50.30;100515.98;107880;1290;22052;-60
2023/07/12 00:21:29;;;;;;;3.90;2.30;;;;;;;22.05;50.44;100520.54;107901;1286;21989;-62
2023/07/12 00:23:56;;;;;;;6.60;2.50;;;;;;;22.02;50.45;100520.05;107822;1286;21990;-59
2023/07/12 00:26:25;;;;;;;7.30;2.80;;;;;;;21.97;50.36;100520.27;107914;1289;21999;-60
2023/07/12 00:28:51;;;;;;;4.70;2.00;;;;;;;21.92;50.25;100520.58;107900;1286;22068;-60
2023/07/12 00:31:16;;;;;;;5.20;2.00;;;;;;;21.87;50.31;100517.64;107851;1282;21989;-61
2023/07/12 00:33:42;;;;;;;5.50;2.50;;;;;;;21.83;50.52;100516.94;107867;1290;21992;-60
2023/07/12 00:36:26;;;;;;;3.70;2.80;;;;;;;21.84;50.72;100511.92;107817;1286;21990;-62
2023/07/12 00:38:52;;;;;;;3.40;2.40;;;;;;;21.87;50.93;100507.65;107802;1287;22030;-62
2023/07/12 00:41:55;;;;;;;3.10;1.90;;;;;;;21.90;51.02;100508.38;107915;1290;22027;-62
2023/07/12 00:44:29;;;;;;;6.40;2.40;;;;;;;21.93;50.86;100509.94;107520;1290;21987;-61
2023/07/12 00:46:56;;;;;;;6.00;2.10;;;;;;;21.94;50.84;100504.02;107785;1286;21986;-61
2023/07/12 00:49:23;;;;;;;6.30;2.10;;;;;;;21.94;50.75;100498.31;107869;1283;21987;-60
2023/07/12 00:52:04;;;;;;;3.50;2.20;;;;;;;21.93;50.73;100498.01;107858;1289;22016;-62
2023/07/12 00:54:49;;;;;;;5.70;2.20;;;;;;;21.90;50.83;100495.30;107821;1290;21996;-61
2023/07/12 00:57:14;;;;;;;4.60;2.40;;;;;;;21.87;50.70;100495.52;107961;1290;22001;-61
2023/07/12 00:59:40;;;;;;;4.90;2.30;;;;;;;21.84;50.84;100502.48;107845;1290;21994;-61
2023/07/12 01:02:07;;;;;;;4.70;2.20;;;;;;;21.82;50.97;100507.94;107789;1289;22808;-60
2023/07/12 01:04:40;;;;;;;3.60;2.10;;;;;;;21.78;51.11;100510.48;107825;1283;21996;-60
2023/07/12 01:07:06;;;;;;;7.20;2.20;;;;;;;21.70;51.27;100506.27;107929;1290;23634;-61
2023/07/12 01:09:33;;;;;;;3.80;2.20;;;;;;;21.64;51.42;100503.21;107786;1290;21993;-62
2023/07/12 01:11:59;;;;;;;3.80;2.30;;;;;;;21.63;51.70;100504.02;107888;1285;21995;-59
2023/07/12 01:14:25;;;;;;;3.40;1.70;;;;;;;21.64;51.67;100508.75;107795;1290;21993;-62
2023/07/12 01:16:59;;;;;;;4.40;2.30;;;;;;;21.66;51.70;100508.61;107832;1290;22001;-62
2023/07/12 01:19:25;;;;;;;5.10;2.20;;;;;;;21.67;51.87;100508.03;107901;1286;21993;-62
2023/07/12 01:21:52;;;;;;;4.90;2.50;;;;;;;21.66;51.92;100508.98;107890;1289;21997;-63
2023/07/12 01:24:18;;;;;;;5.20;2.30;;;;;;;21.65;51.94;100513.69;107887;1277;21987;-60
2023/07/12 01:26:46;;;;;;;4.10;2.20;;;;;;;21.64;51.83;100512.85;107870;1290;22001;-60
2023/07/12 01:29:13;;;;;;;3.10;2.00;;;;;;;21.62;51.82;100509.75;107935;1286;21998;-60
2023/07/12 01:31:38;;;;;;;3.90;2.00;;;;;;;21.58;51.94;100509.45;107799;1289;22002;-62
2023/07/12 01:34:04;;;;;;;3.70;2.00;;;;;;;21.55;51.93;100508.88;107861;1290;22089;-60
2023/07/12 01:36:31;;;;;;;5.30;2.00;;;;;;;21.54;52.06;100504.11;107825;1290;21986;-60
2023/07/12 01:38:57;;;;;;;4.60;2.40;;;;;;;21.54;52.01;100503.20;107881;1290;21995;-62
2023/07/12 01:41:23;;;;;;;4.50;2.10;;;;;;;21.57;52.16;100493.44;107879;1290;21991;-62
2023/07/12 01:43:49;;;;;;;6.80;2.40;;;;;;;21.59;52.31;100489.53;107842;1290;21997;-62
2023/07/12 01:46:14;;;;;;;4.30;2.00;;;;;;;21.63;52.39;100486.51;107867;1286;22174;-61
2023/07/12 01:48:40;;;;;;;6.20;2.00;;;;;;;21.66;52.49;100485.98;107840;1290;21987;-61
2023/07/12 01:51:05;;;;;;;6.80;2.30;;;;;;;21.70;52.57;100489.67;107837;1280;21991;-64
2023/07/12 01:53:33;;;;;;;6.70;2.70;;;;;;;21.79;52.45;100488.80;107868;1286;21997;-60
2023/07/12 01:55:59;;;;;;;5.60;2.20;;;;;;;21.85;52.40;100481.86;107834;1285;21992;-62
2023/07/12 01:58:28;;;;;;;4.90;2.20;;;;;;;21.90;52.38;100477.11;107848;1283;22058;-61
2023/07/12 02:00:53;;;;;;;3.20;2.20;;;;;;;21.96;52.47;100476.95;107843;1290;21990;-61
2023/07/12 02:03:22;;;;;;;5.20;2.40;;;;;;;22.01;52.45;100481.30;107846;1286;21989;-60
2023/07/12 02:05:48;;;;;;;6.90;2.00;;;;;;;22.02;52.34;100484.09;107871;1286;21981;-59
2023/07/12 02:08:14;;;;;;;3.50;2.10;;;;;;;22.01;52.42;100486.11;107837;1287;21994;-59
2023/07/12 02:10:39;;;;;;;5.50;2.10;;;;;;;21.99;52.29;100480.17;107807;1286;22030;-60
2023/07/12 02:13:05;;;;;;;3.20;1.90;;;;;;;21.97;52.49;100485.64;107790;1287;22030;-60
2023/07/12 02:15:31;;;;;;;5.90;2.10;;;;;;;21.89;52.51;100491.96;107821;1290;21993;-59
2023/07/12 02:17:57;;;;;;;3.30;1.80;;;;;;;21.88;52.43;100492.56;107833;1286;22463;-59
2023/07/12 02:20:23;;;;;;;4.10;2.10;;;;;;;21.81;52.49;100498.67;107958;1290;21988;-61
2023/07/12 02:22:49;;;;;;;5.10;2.10;;;;;;;21.78;52.51;100501.20;107912;1290;22038;-60
2023/07/12 02:25:15;;;;;;;3.70;2.10;;;;;;;21.76;52.49;100501.52;107861;1286;22001;-59
2023/07/12 02:27:41;;;;;;;4.40;2.30;;;;;;;21.72;52.52;100500.97;107894;1286;21999;-62
2023/07/12 02:30:11;;;;;;;4.40;1.70;;;;;;;21.71;52.54;100502.49;107923;1286;22089;-59
2023/07/12 02:32:37;;;;;;;3.80;1.90;;;;;;;21.70;52.50;100505.02;107860;1286;23615;-59
2023/07/12 02:35:03;;;;;;;8.10;2.30;;;;;;;21.70;52.56;100508.93;107826;1290;21990;-61
2023/07/12 02:37:29;;;;;;;4.80;2.40;;;;;;;21.70;52.66;100511.64;107947;1290;21989;-60
2023/07/12 02:39:55;;;;;;;5.60;2.50;;;;;;;21.69;52.61;100511.50;107928;1280;21994;-59
2023/07/12 02:42:20;;;;;;;6.00;2.30;;;;;;;21.67;52.76;100512.88;107861;1287;22006;-61
2023/07/12 02:44:46;;;;;;;6.30;2.10;;;;;;;21.65;52.89;100509.06;107893;1280;22251;-59
2023/07/12 02:47:15;;;;;;;4.80;2.10;;;;;;;21.63;53.00;100505.42;107881;1284;21995;-63
2023/07/12 02:49:40;;;;;;;4.10;2.00;;;;;;;21.62;52.93;100505.67;107931;1288;22027;-62
2023/07/12 02:52:07;;;;;;;7.60;1.90;;;;;;;21.63;52.95;100507.95;107856;1286;22027;-60
2023/07/12 02:54:33;;;;;;;6.00;2.40;;;;;;;21.64;53.12;100510.36;108012;1287;21992;-62
2023/07/12 02:56:59;;;;;;;5.60;2.40;;;;;;;21.65;53.03;100512.25;107989;1289;22004;-60
2023/07/12 02:59:25;;;;;;;4.50;2.20;;;;;;;21.67;53.08;100519.13;108080;1284;22456;-59
2023/07/12 03:01:50;;;;;;;8.30;2.50;;;;;;;21.67;53.09;100520.91;107932;1289;21992;-60
2023/07/12 03:04:17;;;;;;;3.80;2.00;;;;;;;21.67;53.10;100522.89;107883;1280;22455;-59
2023/07/12 03:06:43;;;;;;;5.60;2.40;;;;;;;21.66;53.16;100525.60;107901;1289;21987;-63
2023/07/12 03:09:08;;;;;;;5.90;2.50;;;;;;;21.68;53.23;100529.23;107938;1286;21989;-59
2023/07/12 03:11:34;;;;;;;5.70;2.00;;;;;;;21.71;53.57;100529.08;107853;1289;22000;-63
2023/07/12 03:14:01;;;;;;;5.30;2.30;;;;;;;21.75;53.77;100530.84;107864;1284;21993;-62
2023/07/12 03:16:26;;;;;;;5.90;2.30;;;;;;;21.79;54.12;100530.08;107964;1289;21978;-63
2023/07/12 03:18:52;;;;;;;4.90;2.20;;;;;;;21.82;54.05;100528.64;108006;1288;21990;-61
2023/07/12 03:21:18;;;;;;;4.00;2.20;;;;;;;21.87;54.38;100530.48;108035;1286;21989;-61
2023/07/12 03:23:44;;;;;;;5.70;2.70;;;;;;;21.93;54.50;100531.41;108060;1287;21998;-61
2023/07/12 03:26:09;;;;;;;4.90;1.80;;;;;;;22.06;54.41;100537.11;108144;1284;22015;-59
2023/07/12 03:28:35;;;;;;;5.00;2.30;;;;;;;22.10;54.57;100539.16;108081;1283;21996;-59
2023/07/12 03:31:06;;;;;;;6.70;2.80;;;;;;;22.17;54.86;100539.48;108077;1284;21987;-59
2023/07/12 03:33:32;;;;;;;10.90;2.60;;;;;;;22.27;55.09;100537.83;108118;1284;21994;-59
2023/07/12 03:35:59;;;;;;;14.30;2.50;;;;;;;22.37;54.57;100538.34;108105;1288;21995;-62
2023/07/12 03:38:25;;;;;;;242.10;18.50;;;;;;;22.57;54.73;100543.41;108141;1287;21989;-62
2023/07/12 03:40:52;;;;;;;25.70;3.80;;;;;;;22.82;54.88;100543.21;108063;1287;22003;-59
2023/07/12 03:43:20;;;;;;;15.00;2.90;;;;;;;23.00;54.97;100547.12;108101;1288;21991;-59
2023/07/12 03:45:45;;;;;;;9.90;2.30;;;;;;;23.04;54.98;100546.10;108059;1284;21983;-59
2023/07/12 03:48:11;;;;;;;9.00;2.50;;;;;;;23.10;55.17;100549.02;108008;1284;21945;-59
2023/07/12 03:50:39;;;;;;;6.30;2.40;;;;;;;23.14;55.07;100548.38;108085;1289;21983;-60
2023/07/12 03:53:05;;;;;;;61.40;7.30;;;;;;;23.18;55.05;100552.98;108129;1284;22024;-58
2023/07/12 03:55:31;;;;;;;9.60;2.80;;;;;;;23.22;54.69;100556.86;108071;1288;22001;-58
2023/07/12 03:57:56;;;;;;;9.70;3.10;;;;;;;23.25;54.91;100563.12;108060;1281;21991;-58
2023/07/12 04:00:22;;;;;;;14.70;3.40;;;;;;;23.25;54.85;100558.87;106270;1287;2414468;-61
2023/07/12 04:02:48;;;;;;;10.40;3.90;;;;;;;23.26;54.75;100562.35;108090;1277;21989;-63
2023/07/12 04:05:14;;;;;;;4.90;2.80;;;;;;;23.29;54.55;100560.58;108060;1284;21994;-58
2023/07/12 04:07:40;;;;;;;8.70;3.40;;;;;;;23.31;54.37;100560.42;108098;1289;21984;-59
2023/07/12 04:10:07;;;;;;;6.30;2.50;;;;;;;23.34;54.47;100563.50;108161;1286;21972;-58
2023/07/12 04:12:35;;;;;;;5.90;2.80;;;;;;;23.37;54.48;100568.48;108097;1277;21986;-61
2023/07/12 04:15:01;;;;;;;5.30;3.00;;;;;;;23.39;54.55;100572.29;108104;1284;21986;-58
2023/07/12 04:17:27;;;;;;;6.30;3.20;;;;;;;23.40;54.79;100573.99;108120;1289;21959;-60
2023/07/12 04:19:52;;;;;;;3.80;2.80;;;;;;;23.42;54.75;100577.09;108154;1284;22044;-60
2023/07/12 04:22:18;;;;;;;4.30;2.50;;;;;;;23.49;54.89;100575.64;108073;1278;21989;-58
2023/07/12 04:24:49;;;;;;;4.80;3.10;;;;;;;23.57;55.36;100580.12;108053;1288;21991;-62
2023/07/12 04:27:15;;;;;;;6.30;2.80;;;;;;;23.69;55.38;100584.02;108084;1288;22101;-62
2023/07/12 04:29:41;;;;;;;6.90;3.00;;;;;;;23.81;56.12;100583.08;108120;1283;21989;-58
2023/07/12 04:32:07;;;;;;;4.90;2.70;;;;;;;23.94;55.96;100585.28;108074;1287;21989;-59
2023/07/12 04:34:32;;;;;;;10.30;3.80;;;;;;;24.07;55.67;100588.61;108101;1284;21983;-59
2023/07/12 04:36:58;;;;;;;4.80;2.30;;;;;;;24.20;55.92;100595.83;108154;1280;22102;-62
2023/07/12 04:39:23;;;;;;;7.10;2.80;;;;;;;24.32;56.03;100596.45;108121;1288;21949;-62
2023/07/12 04:41:49;;;;;;;4.90;3.10;;;;;;;24.45;56.53;100595.57;108107;1288;21989;-58
2023/07/12 04:44:15;;;;;;;5.00;2.50;;;;;;;24.58;55.55;100592.01;108064;1287;21988;-62
2023/07/12 04:46:40;;;;;;;6.40;2.70;;;;;;;24.70;55.10;100589.60;108069;1288;21982;-58
2023/07/12 04:49:08;;;;;;;5.30;2.60;;;;;;;24.81;54.89;100594.09;108089;1284;21984;-61
2023/07/12 04:51:33;;;;;;;3.50;2.50;;;;;;;24.90;54.72;100599.02;108108;1288;21983;-59
2023/07/12 04:54:00;;;;;;;3.60;2.40;;;;;;;24.99;54.09;100605.45;108065;1283;21987;-59
2023/07/12 04:56:25;;;;;;;3.90;2.30;;;;;;;25.06;54.04;100606.55;108081;1288;21992;-62
2023/07/12 04:58:51;;;;;;;5.70;2.50;;;;;;;25.15;54.00;100608.43;108221;1284;21991;-59
2023/07/12 05:01:18;;;;;;;3.90;2.60;;;;;;;25.24;54.10;100609.05;108209;1284;21990;-59
2023/07/12 05:03:45;;;;;;;3.80;2.40;;;;;;;25.35;53.62;100614.56;107999;1284;21984;-63
2023/07/12 05:06:10;;;;;;;3.70;2.30;;;;;;;25.45;53.22;100617.70;107838;1286;21995;-64
2023/07/12 05:08:36;;;;;;;5.20;2.20;;;;;;;25.53;53.28;100616.21;108217;1284;21998;-61
2023/07/12 05:11:03;;;;;;;4.00;2.60;;;;;;;25.66;53.30;100611.33;108102;1283;21984;-64
2023/07/12 05:13:29;;;;;;;4.10;2.60;;;;;;;25.80;53.15;100606.58;108068;1283;22009;-63
2023/07/12 05:15:55;;;;;;;4.70;2.80;;;;;;;25.90;52.74;100604.73;108063;1284;21996;-59
2023/07/12 05:18:21;;;;;;;4.90;2.70;;;;;;;25.99;52.74;100605.33;107987;1280;22449;-59
2023/07/12 05:20:47;;;;;;;3.90;2.50;;;;;;;26.09;52.30;100601.95;107986;1289;21992;-59
2023/07/12 05:23:13;;;;;;;5.50;2.40;;;;;;;26.17;52.04;100601.95;107715;1289;21994;-66
2023/07/12 05:25:38;;;;;;;4.50;2.80;;;;;;;26.24;52.13;100598.13;107957;1289;22009;-65
2023/07/12 05:28:04;;;;;;;4.70;2.40;;;;;;;26.39;52.24;100602.27;107938;1280;22047;-59
2023/07/12 05:30:30;;;;;;;4.00;2.70;;;;;;;26.58;52.04;100607.30;108004;1289;21997;-65
2023/07/12 05:32:56;;;;;;;5.30;2.20;;;;;;;26.74;51.53;100606.04;108003;1289;21985;-60
2023/07/12 05:35:21;;;;;;;8.10;2.80;;;;;;;26.88;50.98;100605.56;107946;1286;21984;-65
2023/07/12 05:37:48;;;;;;;3.50;2.80;;;;;;;27.04;50.93;100603.66;107927;1287;22027;-65
2023/07/12 05:40:14;;;;;;;4.90;2.60;;;;;;;27.21;50.66;100608.58;107982;1289;21990;-59
2023/07/12 05:42:41;;;;;;;3.60;2.20;;;;;;;27.41;50.31;100612.45;107928;1289;21985;-59
2023/07/12 05:45:08;;;;;;;4.20;2.20;;;;;;;27.58;49.56;100608.26;107955;1281;21991;-58
2023/07/12 05:47:34;;;;;;;6.50;2.50;;;;;;;27.70;49.13;100605.08;108001;1289;22465;-65
2023/07/12 05:50:00;;;;;;;3.90;2.40;;;;;;;27.79;48.01;100600.98;107941;1289;22025;-64
2023/07/12 05:52:27;;;;;;;3.40;2.10;;;;;;;27.82;47.54;100602.30;107977;1289;21992;-65
2023/07/12 05:54:54;;;;;;;4.60;2.00;;;;;;;27.87;47.29;100595.95;107958;1289;21996;-58
2023/07/12 05:57:19;;;;;;;4.70;2.10;;;;;;;27.96;46.78;100593.63;107918;1277;21993;-65
2023/07/12 05:59:45;;;;;;;5.90;2.90;;;;;;;28.10;46.91;100591.09;107942;1289;21990;-59
2023/07/12 06:02:12;;;;;;;6.30;2.40;;;;;;;28.27;46.71;100591.83;107938;1289;22039;-66
2023/07/12 06:04:38;;;;;;;4.50;2.50;;;;;;;28.42;46.35;100587.62;107966;1289;21987;-59
2023/07/12 06:07:07;;;;;;;6.20;2.00;;;;;;;28.57;46.26;100586.38;107965;1287;22056;-59
2023/07/12 06:09:33;;;;;;;9.40;2.80;;;;;;;28.72;45.29;100587.64;107932;1289;23643;-69
2023/07/12 06:11:59;;;;;;;4.30;2.10;;;;;;;28.92;45.18;100583.66;107925;1289;21987;-60
2023/07/12 06:14:24;;;;;;;5.90;3.00;;;;;;;29.12;44.26;100583.27;107980;1287;21983;-59
2023/07/12 06:16:52;;;;;;;5.50;2.50;;;;;;;29.39;43.35;100592.06;108028;1283;21989;-59
2023/07/12 06:19:18;;;;;;;6.70;2.40;;;;;;;29.57;43.90;100593.89;107937;1284;21988;-59
2023/07/12 06:21:44;;;;;;;5.40;2.50;;;;;;;29.71;43.89;100600.04;107900;1288;21994;-59
2023/07/12 06:24:09;;;;;;;5.00;2.00;;;;;;;29.93;43.55;100599.90;107937;1289;21987;-66
2023/07/12 06:26:35;;;;;;;9.50;3.00;;;;;;;30.12;43.00;100598.01;107949;1287;21987;-59
2023/07/12 06:29:01;;;;;;;5.50;2.10;;;;;;;30.29;42.87;100594.30;107921;1289;21989;-59
2023/07/12 06:31:27;;;;;;;4.40;2.30;;;;;;;30.49;42.36;100592.30;107976;1280;21957;-67
2023/07/12 06:33:53;;;;;;;3.00;2.30;;;;;;;30.70;42.02;100597.28;107987;1289;21997;-67
2023/07/12 06:36:19;;;;;;;3.00;2.20;;;;;;;30.87;41.84;100594.36;108044;1289;21983;-67
2023/07/12 06:38:45;;;;;;;8.10;2.10;;;;;;;31.03;41.81;100592.82;108113;1284;21989;-67
2023/07/12 06:41:12;;;;;;;3.70;2.00;;;;;;;31.21;41.56;100595.10;108102;1284;21986;-66
2023/07/12 06:43:37;;;;;;;3.90;2.10;;;;;;;31.37;40.36;100593.24;108144;1284;22001;-59
2023/07/12 06:46:03;;;;;;;3.60;1.80;;;;;;;31.51;40.47;100589.73;108036;1280;22023;-70
2023/07/12 06:48:29;;;;;;;5.70;2.30;;;;;;;31.60;40.04;100595.52;107858;1288;23756;-67
2023/07/12 06:50:55;;;;;;;3.50;2.10;;;;;;;31.72;39.89;100598.90;108136;1287;21988;-67
2023/07/12 06:53:20;;;;;;;4.80;2.40;;;;;;;31.84;39.58;100603.39;108108;1283;21985;-67
2023/07/12 06:55:48;;;;;;;3.90;2.10;;;;;;;31.91;39.22;100595.24;108100;1287;22099;-67
2023/07/12 06:58:13;;;;;;;4.30;2.10;;;;;;;31.93;38.82;100593.48;108125;1287;21986;-60
2023/07/12 07:00:43;;;;;;;6.40;2.20;;;;;;;31.99;38.88;100593.77;108060;1288;21999;-60
2023/07/12 07:03:09;;;;;;;3.30;2.30;;;;;;;31.95;37.55;100598.80;108083;1283;24319;-67
2023/07/12 07:05:39;;;;;;;3.40;2.20;;;;;;;31.87;37.78;100609.26;108036;1281;22026;-60
2023/07/12 07:08:05;;;;;;;3.70;2.00;;;;;;;31.80;37.59;100609.03;108089;1284;21989;-60
2023/07/12 07:10:32;;;;;;;3.40;2.10;;;;;;;31.70;38.13;100605.60;108091;1284;21991;-68
2023/07/12 07:12:57;;;;;;;3.00;2.10;;;;;;;31.77;38.60;100602.43;108068;1288;22011;-67
2023/07/12 07:15:23;;;;;;;2.80;1.70;;;;;;;31.93;38.19;100601.56;108068;1284;21992;-61
2023/07/12 07:17:49;;;;;;;5.00;2.50;;;;;;;32.12;37.88;100601.86;108083;1288;21989;-62
2023/07/12 07:20:14;;;;;;;2.50;2.00;;;;;;;32.23;37.50;100597.02;108067;1283;21983;-60
2023/07/12 07:22:40;;;;;;;3.40;2.30;;;;;;;32.21;37.15;100590.10;108077;1281;22004;-61
2023/07/12 07:25:06;;;;;;;4.30;2.20;;;;;;;32.17;37.11;100597.61;108094;1286;21992;-70
2023/07/12 07:27:32;;;;;;;4.70;2.40;;;;;;;32.19;36.94;100595.90;108043;1287;22015;-61
2023/07/12 07:29:58;;;;;;;3.80;2.30;;;;;;;32.20;36.95;100599.48;108091;1284;21998;-68
2023/07/12 07:32:23;;;;;;;4.20;2.00;;;;;;;32.07;36.73;100602.52;108098;1283;21997;-62
2023/07/12 07:34:50;;;;;;;6.50;2.00;;;;;;;31.84;36.99;100606.63;108136;1283;22026;-60
2023/07/12 07:37:16;;;;;;;4.70;2.10;;;;;;;31.74;36.89;100602.69;108077;1280;22023;-61
2023/07/12 07:39:41;;;;;;;4.90;2.30;;;;;;;31.70;36.74;100598.36;108087;1286;21995;-60
2023/07/12 07:42:07;;;;;;;3.00;2.00;;;;;;;31.64;36.88;100604.79;108120;1287;23386;-69
2023/07/12 07:44:34;;;;;;;5.10;2.20;;;;;;;31.57;36.45;100605.13;107843;1288;22040;-72
2023/07/12 07:46:59;;;;;;;4.00;2.70;;;;;;;31.47;36.47;100599.90;108407;1288;21972;-69
2023/07/12 07:49:26;;;;;;;2.60;1.90;;;;;;;31.42;36.66;100595.08;108338;1288;21988;-60
2023/07/12 07:51:51;;;;;;;3.50;2.00;;;;;;;31.38;37.05;100592.78;108081;1289;21989;-61
2023/07/12 07:54:17;;;;;;;3.60;2.10;;;;;;;31.53;36.82;100592.38;108086;1283;22101;-60
2023/07/12 07:56:44;;;;;;;5.90;2.30;;;;;;;31.71;36.69;100590.98;108089;1289;24030;-60
2023/07/12 07:59:10;;;;;;;4.70;2.00;;;;;;;31.98;36.60;100585.48;108053;1284;21996;-60
2023/07/12 08:01:35;;;;;;;4.70;1.90;;;;;;;32.34;36.50;100581.49;107994;1283;21990;-60
2023/07/12 08:04:02;;;;;;;2.70;1.80;;;;;;;32.69;36.19;100582.33;107995;1289;22026;-70
2023/07/12 08:06:28;;;;;;;4.60;2.30;;;;;;;33.09;35.83;100583.56;108007;1284;21984;-71
2023/07/12 08:08:55;;;;;;;5.10;1.90;;;;;;;33.44;35.36;100577.29;108021;1288;21998;-69
2023/07/12 08:11:20;;;;;;;4.50;2.80;;;;;;;33.81;34.67;100581.61;107999;1289;21984;-60
2023/07/12 08:13:46;;;;;;;5.30;2.30;;;;;;;34.08;34.38;100587.19;108071;1288;21991;-69
2023/07/12 08:16:11;;;;;;;3.10;1.70;;;;;;;34.28;34.18;100582.69;108060;1284;22031;-60
2023/07/12 08:18:38;;;;;;;3.20;1.70;;;;;;;34.57;34.68;100582.20;108021;1288;22024;-60
2023/07/12 08:21:03;;;;;;;2.10;1.50;;;;;;;34.87;34.12;100588.16;108054;1284;21989;-61
2023/07/12 08:23:29;;;;;;;2.90;1.70;;;;;;;35.08;33.55;100582.93;108103;1288;22007;-68
2023/07/12 08:25:55;;;;;;;2.70;1.80;;;;;;;35.18;33.25;100582.16;108137;1286;21977;-69
2023/07/12 08:28:22;;;;;;;3.80;1.90;;;;;;;35.28;32.50;100584.69;108101;1278;22451;-60
2023/07/12 08:30:48;;;;;;;2.80;1.70;;;;;;;35.28;31.85;100581.48;108072;1282;21992;-70
2023/07/12 08:33:14;;;;;;;4.10;2.20;;;;;;;35.16;32.40;100573.45;108082;1287;21993;-60
2023/07/12 08:35:40;;;;;;;2.60;1.60;;;;;;;35.20;32.34;100575.46;108099;1279;21992;-65
2023/07/12 08:38:05;;;;;;;2.10;1.30;;;;;;;35.32;32.52;100570.38;108083;1281;21994;-62
2023/07/12 08:40:31;;;;;;;3.70;1.50;;;;;;;35.57;31.85;100574.15;108072;1284;21982;-66
2023/07/12 08:42:59;;;;;;;3.70;1.60;;;;;;;35.85;31.95;100566.89;108078;1283;21998;-60
2023/07/12 08:45:26;;;;;;;2.80;1.40;;;;;;;36.13;31.82;100567.82;108110;1289;23714;-65
2023/07/12 08:47:57;;;;;;;3.00;1.50;;;;;;;36.39;31.46;100564.59;108177;1280;21984;-66
2023/07/12 08:50:23;;;;;;;2.90;1.60;;;;;;;36.47;30.95;100561.20;108191;1283;21996;-60
2023/07/12 08:52:48;;;;;;;3.90;1.70;;;;;;;36.31;29.40;100553.41;108454;1284;21998;-60
2023/07/12 08:55:18;;;;;;;2.90;1.80;;;;;;;36.18;30.22;100556.25;108279;1289;22119;-59
2023/07/12 08:57:46;;;;;;;4.60;1.70;;;;;;;36.12;30.49;100561.98;108320;1280;21992;-59
2023/07/12 09:00:17;;;;;;;4.90;1.50;;;;;;;35.99;29.75;100562.86;107820;1287;21987;-69
2023/07/12 09:02:43;;;;;;;6.10;1.70;;;;;;;35.77;30.15;100564.13;107762;1287;21998;-69
2023/07/12 09:05:10;;;;;;;2.70;1.60;;;;;;;35.76;31.06;100563.55;107976;1286;21998;-69
2023/07/12 09:07:36;;;;;;;2.20;1.50;;;;;;;36.00;30.77;100559.23;107915;1289;22044;-69
2023/07/12 09:10:01;;;;;;;4.50;1.60;;;;;;;36.10;28.93;100553.60;107806;1289;22057;-68
2023/07/12 09:12:30;;;;;;;4.20;1.60;;;;;;;36.07;29.28;100556.86;107983;1287;23053;-60
2023/07/12 09:14:58;;;;;;;3.80;1.50;;;;;;;36.06;29.07;100561.40;108019;1283;23052;-60
2023/07/12 09:17:26;;;;;;;3.20;1.40;;;;;;;36.15;30.03;100554.02;107993;1280;21989;-60
2023/07/12 09:19:51;;;;;;;3.20;1.40;;;;;;;36.41;29.43;100548.24;108050;1284;21994;-60
2023/07/12 09:22:17;;;;;;;4.50;1.70;;;;;;;36.67;29.10;100549.21;107978;1284;21994;-67
2023/07/12 09:24:45;;;;;;;3.70;1.40;;;;;;;36.79;28.81;100549.19;108029;1284;21989;-65
2023/07/12 09:27:18;;;;;;;3.40;1.60;;;;;;;36.77;27.95;100546.63;107973;1289;21985;-65
2023/07/12 09:29:44;;;;;;;1.80;1.30;;;;;;;36.59;27.63;100546.08;108051;1288;21989;-66
2023/07/12 09:32:22;;;;;;;2.70;1.30;;;;;;;36.66;28.15;100546.06;108089;1284;21995;-61
2023/07/12 09:34:48;;;;;;;3.20;1.40;;;;;;;36.67;27.21;100550.27;107952;1288;21992;-65
2023/07/12 09:37:18;;;;;;;2.50;1.40;;;;;;;36.84;28.19;100549.35;107818;1288;21988;-65
2023/07/12 09:39:57;;;;;;;3.10;1.50;;;;;;;37.08;27.97;100550.45;108082;1288;21992;-65
2023/07/12 09:42:23;;;;;;;3.60;1.30;;;;;;;37.18;28.02;100548.45;108122;1284;21991;-61
2023/07/12 09:44:49;;;;;;;6.90;1.60;;;;;;;37.24;28.34;100547.91;108143;1288;22002;-60
2023/07/12 09:47:23;;;;;;;1.90;1.30;;;;;;;37.50;28.01;100554.21;107832;1284;21987;-61
2023/07/12 09:49:59;;;;;;;2.50;1.40;;;;;;;37.65;27.46;100550.92;108150;1288;22023;-61
2023/07/12 09:52:36;;;;;;;2.50;1.70;;;;;;;37.65;27.66;100558.02;108129;1277;21986;-66
2023/07/12 09:55:09;;;;;;;2.10;1.50;;;;;;;37.79;26.76;100552.34;108147;1285;21989;-65
2023/07/12 09:57:45;;;;;;;4.00;1.60;;;;;;;37.89;25.50;100554.27;107885;1288;23738;-61
2023/07/12 10:00:21;;;;;;;3.10;1.30;;;;;;;37.88;25.54;100555.23;108154;1288;22453;-61
2023/07/12 10:03:17;;;;;;;3.80;1.40;;;;;;;37.74;25.61;100558.24;108085;1288;21986;-65
2023/07/12 10:05:56;;;;;;;2.00;1.30;;;;;;;37.44;25.81;100557.60;108081;1288;21988;-62
2023/07/12 10:08:22;;;;;;;2.90;1.40;;;;;;;37.37;25.87;100553.17;108118;1283;22063;-61
2023/07/12 10:10:57;;;;;;;3.80;1.40;;;;;;;37.44;26.18;100556.27;107886;1289;22458;-65
2023/07/12 10:13:33;;;;;;;3.50;1.30;;;;;;;37.64;26.12;100548.51;108076;1283;21986;-66
2023/07/12 10:15:59;;;;;;;2.80;1.50;;;;;;;37.83;26.33;100540.61;108137;1278;23052;-61
2023/07/12 10:18:26;;;;;;;2.70;1.60;;;;;;;38.16;26.79;100534.69;108111;1288;22025;-66
2023/07/12 10:20:51;;;;;;;4.20;1.60;;;;;;;38.42;25.15;100530.14;108157;1287;21995;-65
2023/07/12 10:23:20;;;;;;;2.60;1.30;;;;;;;38.41;24.54;100527.82;108122;1288;21996;-64
2023/07/12 10:25:48;;;;;;;1.90;1.30;;;;;;;38.28;24.33;100538.02;107868;1284;22013;-61
2023/07/12 10:28:17;;;;;;;2.50;1.40;;;;;;;38.09;24.67;100532.22;107827;1281;21992;-61
2023/07/12 10:30:43;;;;;;;1.60;1.10;;;;;;;37.98;24.76;100528.88;108110;1287;22035;-64
2023/07/12 10:33:32;;;;;;;3.20;1.30;;;;;;;38.00;25.06;100529.00;107811;1286;22000;-61
2023/07/12 10:36:19;;;;;;;1.40;1.20;;;;;;;38.16;25.68;100517.45;107864;1283;21990;-63
2023/07/12 10:38:44;;;;;;;10.70;1.70;;;;;;;38.52;25.16;100515.77;108147;1284;21993;-61
2023/07/12 10:41:27;;;;;;;2.10;1.40;;;;;;;38.59;24.81;100515.19;107886;1289;21992;-64
2023/07/12 10:44:05;;;;;;;2.20;1.20;;;;;;;38.62;24.36;100518.54;107933;1289;21985;-64
2023/07/12 10:46:35;;;;;;;2.80;1.40;;;;;;;38.72;24.61;100528.42;108111;1289;21993;-65
2023/07/12 10:49:09;;;;;;;2.20;1.40;;;;;;;38.82;25.30;100536.95;108130;1286;21987;-61
2023/07/12 10:51:40;;;;;;;2.60;1.40;;;;;;;38.99;24.24;100535.85;107877;1289;21978;-65
2023/07/12 10:54:32;;;;;;;2.90;1.40;;;;;;;39.14;24.28;100535.55;108191;1284;23782;-64
2023/07/12 10:57:06;;;;;;;2.20;1.20;;;;;;;39.03;24.28;100527.58;108148;1289;21994;-64
2023/07/12 10:59:34;;;;;;;2.80;1.30;;;;;;;38.76;24.09;100526.84;108117;1287;22160;-61
2023/07/12 11:02:03;;;;;;;2.00;1.30;;;;;;;38.69;24.24;100527.18;108132;1288;21989;-64
2023/07/12 11:04:35;;;;;;;2.00;1.60;;;;;;;38.87;24.31;100527.52;108131;1276;24300;-61
2023/07/12 11:07:09;;;;;;;3.20;1.50;;;;;;;39.02;22.94;100526.56;108114;1288;22045;-65
2023/07/12 11:12:16;;;;;;;1.50;1.30;;;;;;;39.13;24.36;100524.91;108101;1288;21986;-61
2023/07/12 11:14:48;;;;;;;3.50;1.50;;;;;;;39.23;23.92;100526.95;108147;1287;21960;-65
2023/07/12 11:17:16;;;;;;;3.80;1.30;;;;;;;39.26;24.08;100527.39;108128;1288;22055;-65
2023/07/12 11:19:42;;;;;;;3.20;1.50;;;;;;;39.33;23.55;100529.63;108127;1284;21993;-64
2023/07/12 11:22:39;;;;;;;3.50;1.60;;;;;;;39.35;23.20;100529.21;108083;1284;21989;-66